sensor_id;sensor_type;location;lat;lon;timestamp;P1;durP1;ratioP1;P2;durP2;ratioP2
73168;SDS011;61379;59.732;30.468;2023-06-14T00:02:01;11.55;;;7.78;;
73168;SDS011;61379;59.732;30.468;2023-06-14T00:04:28;10.18;;;8.93;;
73168;SDS011;61379;59.732;30.468;2023-06-14T00:06:56;11.15;;;9.05;;
73168;SDS011;61379;59.732;30.468;2023-06-14T00:09:23;11.77;;;10.05;;
73168;SDS011;61379;59.732;30.468;2023-06-14T00:11:49;10.02;;;8.82;;
73168;SDS011;61379;59.732;30.468;2023-06-14T00:14:16;11.77;;;8.98;;
73168;SDS011;61379;59.732;30.468;2023-06-14T00:16:43;10.05;;;9.25;;
73168;SDS011;61379;59.732;30.468;2023-06-14T00:19:11;12.88;;;9.35;;
73168;SDS011;61379;59.732;30.468;2023-06-14T00:21:38;11.23;;;9.35;;
73168;SDS011;61379;59.732;30.468;2023-06-14T00:24:05;15.40;;;9.13;;
73168;SDS011;61379;59.732;30.468;2023-06-14T00:26:32;13.05;;;9.60;;
73168;SDS011;61379;59.732;30.468;2023-06-14T00:28:59;10.90;;;9.80;;
73168;SDS011;61379;59.732;30.468;2023-06-14T00:31:26;10.60;;;9.57;;
73168;SDS011;61379;59.732;30.468;2023-06-14T00:33:53;10.77;;;9.90;;
73168;SDS011;61379;59.732;30.468;2023-06-14T00:36:21;11.60;;;9.48;;
73168;SDS011;61379;59.732;30.468;2023-06-14T00:38:48;10.48;;;9.30;;
73168;SDS011;61379;59.732;30.468;2023-06-14T00:41:14;11.18;;;9.40;;
73168;SDS011;61379;59.732;30.468;2023-06-14T00:43:41;11.65;;;8.55;;
73168;SDS011;61379;59.732;30.468;2023-06-14T00:46:08;14.32;;;9.40;;
73168;SDS011;61379;59.732;30.468;2023-06-14T00:48:35;10.07;;;9.05;;
73168;SDS011;61379;59.732;30.468;2023-06-14T00:51:02;10.73;;;9.82;;
73168;SDS011;61379;59.732;30.468;2023-06-14T00:53:31;10.68;;;8.90;;
73168;SDS011;61379;59.732;30.468;2023-06-14T00:56:01;10.40;;;9.30;;
73168;SDS011;61379;59.732;30.468;2023-06-14T00:58:28;10.07;;;9.15;;
73168;SDS011;61379;59.732;30.468;2023-06-14T01:00:55;10.23;;;9.23;;
73168;SDS011;61379;59.732;30.468;2023-06-14T01:03:23;10.20;;;9.30;;
73168;SDS011;61379;59.732;30.468;2023-06-14T01:05:51;10.20;;;9.20;;
73168;SDS011;61379;59.732;30.468;2023-06-14T01:10:50;9.88;;;8.98;;
73168;SDS011;61379;59.732;30.468;2023-06-14T01:13:19;10.02;;;8.88;;
73168;SDS011;61379;59.732;30.468;2023-06-14T01:15:47;9.05;;;8.23;;
73168;SDS011;61379;59.732;30.468;2023-06-14T01:18:14;9.77;;;8.90;;
73168;SDS011;61379;59.732;30.468;2023-06-14T01:20:43;12.38;;;7.57;;
73168;SDS011;61379;59.732;30.468;2023-06-14T01:23:16;10.55;;;9.55;;
73168;SDS011;61379;59.732;30.468;2023-06-14T01:25:43;8.63;;;7.32;;
73168;SDS011;61379;59.732;30.468;2023-06-14T01:28:10;15.23;;;9.57;;
73168;SDS011;61379;59.732;30.468;2023-06-14T01:30:38;11.55;;;9.45;;
73168;SDS011;61379;59.732;30.468;2023-06-14T01:33:10;10.25;;;9.35;;
73168;SDS011;61379;59.732;30.468;2023-06-14T01:35:38;9.77;;;8.77;;
73168;SDS011;61379;59.732;30.468;2023-06-14T01:38:05;10.38;;;9.38;;
73168;SDS011;61379;59.732;30.468;2023-06-14T01:40:34;13.43;;;10.30;;
73168;SDS011;61379;59.732;30.468;2023-06-14T01:43:01;11.02;;;9.93;;
73168;SDS011;61379;59.732;30.468;2023-06-14T01:45:29;12.88;;;9.98;;
73168;SDS011;61379;59.732;30.468;2023-06-14T01:47:56;10.27;;;9.18;;
73168;SDS011;61379;59.732;30.468;2023-06-14T01:50:23;13.25;;;10.00;;
73168;SDS011;61379;59.732;30.468;2023-06-14T01:52:49;11.25;;;9.57;;
73168;SDS011;61379;59.732;30.468;2023-06-14T01:55:16;10.48;;;9.35;;
73168;SDS011;61379;59.732;30.468;2023-06-14T01:57:45;11.48;;;10.23;;
73168;SDS011;61379;59.732;30.468;2023-06-14T02:00:12;11.82;;;10.63;;
73168;SDS011;61379;59.732;30.468;2023-06-14T02:02:40;13.40;;;12.02;;
73168;SDS011;61379;59.732;30.468;2023-06-14T02:05:06;14.25;;;11.82;;
73168;SDS011;61379;59.732;30.468;2023-06-14T02:07:34;13.15;;;10.95;;
73168;SDS011;61379;59.732;30.468;2023-06-14T02:10:01;14.70;;;11.13;;
73168;SDS011;61379;59.732;30.468;2023-06-14T02:12:32;14.80;;;11.38;;
73168;SDS011;61379;59.732;30.468;2023-06-14T02:15:02;14.98;;;11.05;;
73168;SDS011;61379;59.732;30.468;2023-06-14T02:17:33;12.10;;;10.93;;
73168;SDS011;61379;59.732;30.468;2023-06-14T02:20:00;11.23;;;10.00;;
73168;SDS011;61379;59.732;30.468;2023-06-14T02:22:30;13.85;;;11.35;;
73168;SDS011;61379;59.732;30.468;2023-06-14T02:24:57;18.45;;;11.80;;
73168;SDS011;61379;59.732;30.468;2023-06-14T02:27:24;15.15;;;11.18;;
73168;SDS011;61379;59.732;30.468;2023-06-14T02:29:51;14.55;;;10.82;;
73168;SDS011;61379;59.732;30.468;2023-06-14T02:32:19;13.55;;;11.38;;
73168;SDS011;61379;59.732;30.468;2023-06-14T02:34:46;12.00;;;10.75;;
73168;SDS011;61379;59.732;30.468;2023-06-14T02:37:15;16.05;;;11.43;;
73168;SDS011;61379;59.732;30.468;2023-06-14T02:39:42;12.80;;;11.50;;
73168;SDS011;61379;59.732;30.468;2023-06-14T02:42:08;14.93;;;11.80;;
73168;SDS011;61379;59.732;30.468;2023-06-14T02:44:35;12.80;;;11.65;;
73168;SDS011;61379;59.732;30.468;2023-06-14T02:47:02;12.77;;;10.50;;
73168;SDS011;61379;59.732;30.468;2023-06-14T02:49:30;13.02;;;11.55;;
73168;SDS011;61379;59.732;30.468;2023-06-14T02:51:57;12.13;;;10.93;;
73168;SDS011;61379;59.732;30.468;2023-06-14T02:54:24;13.75;;;12.20;;
73168;SDS011;61379;59.732;30.468;2023-06-14T02:56:51;14.40;;;13.10;;
73168;SDS011;61379;59.732;30.468;2023-06-14T02:59:17;15.02;;;12.45;;
73168;SDS011;61379;59.732;30.468;2023-06-14T03:01:44;15.95;;;12.25;;
73168;SDS011;61379;59.732;30.468;2023-06-14T03:04:12;13.80;;;11.45;;
73168;SDS011;61379;59.732;30.468;2023-06-14T03:06:41;14.30;;;11.85;;
73168;SDS011;61379;59.732;30.468;2023-06-14T03:09:09;14.55;;;12.98;;
73168;SDS011;61379;59.732;30.468;2023-06-14T03:11:36;16.48;;;12.82;;
73168;SDS011;61379;59.732;30.468;2023-06-14T03:14:03;15.50;;;12.88;;
73168;SDS011;61379;59.732;30.468;2023-06-14T03:16:32;15.57;;;12.27;;
73168;SDS011;61379;59.732;30.468;2023-06-14T03:18:59;15.38;;;13.40;;
73168;SDS011;61379;59.732;30.468;2023-06-14T03:21:25;16.48;;;12.75;;
73168;SDS011;61379;59.732;30.468;2023-06-14T03:23:54;19.95;;;13.32;;
73168;SDS011;61379;59.732;30.468;2023-06-14T03:26:21;17.98;;;12.60;;
73168;SDS011;61379;59.732;30.468;2023-06-14T03:28:48;15.07;;;12.68;;
73168;SDS011;61379;59.732;30.468;2023-06-14T03:31:15;18.02;;;13.63;;
73168;SDS011;61379;59.732;30.468;2023-06-14T03:33:42;19.48;;;12.88;;
73168;SDS011;61379;59.732;30.468;2023-06-14T03:36:09;16.85;;;13.10;;
73168;SDS011;61379;59.732;30.468;2023-06-14T03:38:36;15.30;;;13.10;;
73168;SDS011;61379;59.732;30.468;2023-06-14T03:41:04;14.20;;;12.27;;
73168;SDS011;61379;59.732;30.468;2023-06-14T03:43:31;12.52;;;11.23;;
73168;SDS011;61379;59.732;30.468;2023-06-14T03:45:58;18.33;;;12.32;;
73168;SDS011;61379;59.732;30.468;2023-06-14T03:48:25;15.60;;;12.40;;
73168;SDS011;61379;59.732;30.468;2023-06-14T03:50:52;16.92;;;11.88;;
73168;SDS011;61379;59.732;30.468;2023-06-14T03:53:20;16.13;;;12.13;;
73168;SDS011;61379;59.732;30.468;2023-06-14T03:55:48;15.55;;;12.40;;
73168;SDS011;61379;59.732;30.468;2023-06-14T03:58:19;14.82;;;12.75;;
73168;SDS011;61379;59.732;30.468;2023-06-14T04:00:46;17.92;;;12.88;;
73168;SDS011;61379;59.732;30.468;2023-06-14T04:03:13;20.50;;;11.23;;
73168;SDS011;61379;59.732;30.468;2023-06-14T04:05:40;22.40;;;12.95;;
73168;SDS011;61379;59.732;30.468;2023-06-14T04:08:07;27.60;;;13.70;;
73168;SDS011;61379;59.732;30.468;2023-06-14T04:10:35;16.55;;;11.25;;
73168;SDS011;61379;59.732;30.468;2023-06-14T04:13:02;22.48;;;12.98;;
73168;SDS011;61379;59.732;30.468;2023-06-14T04:15:31;17.25;;;12.95;;
73168;SDS011;61379;59.732;30.468;2023-06-14T04:17:58;14.73;;;12.13;;
73168;SDS011;61379;59.732;30.468;2023-06-14T04:20:25;17.00;;;11.77;;
73168;SDS011;61379;59.732;30.468;2023-06-14T04:22:52;32.13;;;12.50;;
73168;SDS011;61379;59.732;30.468;2023-06-14T04:25:19;27.15;;;12.63;;
73168;SDS011;61379;59.732;30.468;2023-06-14T04:27:46;25.55;;;13.07;;
73168;SDS011;61379;59.732;30.468;2023-06-14T04:30:13;23.88;;;12.38;;
73168;SDS011;61379;59.732;30.468;2023-06-14T04:32:42;23.50;;;12.23;;
73168;SDS011;61379;59.732;30.468;2023-06-14T04:35:09;21.98;;;12.90;;
73168;SDS011;61379;59.732;30.468;2023-06-14T04:37:36;10.75;;;9.65;;
73168;SDS011;61379;59.732;30.468;2023-06-14T04:40:09;11.10;;;10.00;;
73168;SDS011;61379;59.732;30.468;2023-06-14T04:42:36;10.25;;;9.45;;
73168;SDS011;61379;59.732;30.468;2023-06-14T04:45:03;10.35;;;9.48;;
73168;SDS011;61379;59.732;30.468;2023-06-14T04:47:32;9.75;;;8.82;;
73168;SDS011;61379;59.732;30.468;2023-06-14T04:50:01;9.57;;;8.50;;
73168;SDS011;61379;59.732;30.468;2023-06-14T04:52:29;9.77;;;8.77;;
73168;SDS011;61379;59.732;30.468;2023-06-14T04:54:57;9.00;;;8.40;;
73168;SDS011;61379;59.732;30.468;2023-06-14T04:57:24;9.32;;;8.52;;
73168;SDS011;61379;59.732;30.468;2023-06-14T04:59:51;8.77;;;8.18;;
73168;SDS011;61379;59.732;30.468;2023-06-14T05:02:21;9.57;;;8.77;;
73168;SDS011;61379;59.732;30.468;2023-06-14T05:04:48;8.95;;;8.25;;
73168;SDS011;61379;59.732;30.468;2023-06-14T05:07:16;9.35;;;8.50;;
73168;SDS011;61379;59.732;30.468;2023-06-14T05:09:43;14.70;;;7.60;;
73168;SDS011;61379;59.732;30.468;2023-06-14T05:12:10;9.50;;;8.70;;
73168;SDS011;61379;59.732;30.468;2023-06-14T05:14:37;10.43;;;8.35;;
73168;SDS011;61379;59.732;30.468;2023-06-14T05:17:04;8.32;;;7.47;;
73168;SDS011;61379;59.732;30.468;2023-06-14T05:19:31;9.15;;;8.25;;
73168;SDS011;61379;59.732;30.468;2023-06-14T05:21:58;8.45;;;7.85;;
73168;SDS011;61379;59.732;30.468;2023-06-14T05:24:26;10.43;;;8.18;;
73168;SDS011;61379;59.732;30.468;2023-06-14T05:26:54;10.13;;;8.50;;
73168;SDS011;61379;59.732;30.468;2023-06-14T05:29:21;9.52;;;8.68;;
73168;SDS011;61379;59.732;30.468;2023-06-14T05:31:48;8.82;;;7.90;;
73168;SDS011;61379;59.732;30.468;2023-06-14T05:34:15;9.27;;;8.35;;
73168;SDS011;61379;59.732;30.468;2023-06-14T05:36:42;8.45;;;7.70;;
73168;SDS011;61379;59.732;30.468;2023-06-14T05:39:08;9.48;;;8.30;;
73168;SDS011;61379;59.732;30.468;2023-06-14T05:41:37;9.32;;;8.52;;
73168;SDS011;61379;59.732;30.468;2023-06-14T05:44:04;9.63;;;8.77;;
73168;SDS011;61379;59.732;30.468;2023-06-14T05:46:30;9.40;;;8.65;;
73168;SDS011;61379;59.732;30.468;2023-06-14T05:48:57;9.40;;;8.48;;
73168;SDS011;61379;59.732;30.468;2023-06-14T05:51:24;10.02;;;9.15;;
73168;SDS011;61379;59.732;30.468;2023-06-14T05:53:51;9.82;;;8.57;;
73168;SDS011;61379;59.732;30.468;2023-06-14T05:56:18;9.25;;;8.48;;
73168;SDS011;61379;59.732;30.468;2023-06-14T05:58:47;8.63;;;7.88;;
73168;SDS011;61379;59.732;30.468;2023-06-14T06:01:14;9.45;;;8.50;;
73168;SDS011;61379;59.732;30.468;2023-06-14T06:03:41;8.85;;;8.00;;
73168;SDS011;61379;59.732;30.468;2023-06-14T06:06:11;9.25;;;7.00;;
73168;SDS011;61379;59.732;30.468;2023-06-14T06:08:38;8.70;;;8.10;;
73168;SDS011;61379;59.732;30.468;2023-06-14T06:11:05;9.00;;;8.27;;
73168;SDS011;61379;59.732;30.468;2023-06-14T06:13:32;9.18;;;8.30;;
73168;SDS011;61379;59.732;30.468;2023-06-14T06:16:01;8.60;;;7.88;;
73168;SDS011;61379;59.732;30.468;2023-06-14T06:18:28;9.07;;;8.38;;
73168;SDS011;61379;59.732;30.468;2023-06-14T06:20:55;9.43;;;8.70;;
73168;SDS011;61379;59.732;30.468;2023-06-14T06:23:22;9.77;;;8.73;;
73168;SDS011;61379;59.732;30.468;2023-06-14T06:25:48;8.35;;;7.65;;
73168;SDS011;61379;59.732;30.468;2023-06-14T06:28:15;9.18;;;8.27;;
73168;SDS011;61379;59.732;30.468;2023-06-14T06:30:42;8.10;;;7.50;;
73168;SDS011;61379;59.732;30.468;2023-06-14T06:33:10;7.50;;;6.80;;
73168;SDS011;61379;59.732;30.468;2023-06-14T06:35:38;9.65;;;8.73;;
73168;SDS011;61379;59.732;30.468;2023-06-14T06:38:05;8.68;;;8.02;;
73168;SDS011;61379;59.732;30.468;2023-06-14T06:40:31;10.15;;;9.13;;
73168;SDS011;61379;59.732;30.468;2023-06-14T06:42:58;9.52;;;7.72;;
73168;SDS011;61379;59.732;30.468;2023-06-14T06:45:25;8.85;;;8.15;;
73168;SDS011;61379;59.732;30.468;2023-06-14T06:47:52;9.77;;;8.88;;
73168;SDS011;61379;59.732;30.468;2023-06-14T06:50:20;8.80;;;8.10;;
73168;SDS011;61379;59.732;30.468;2023-06-14T06:52:48;8.55;;;7.93;;
73168;SDS011;61379;59.732;30.468;2023-06-14T06:55:15;9.32;;;8.73;;
73168;SDS011;61379;59.732;30.468;2023-06-14T06:57:45;8.95;;;8.05;;
73168;SDS011;61379;59.732;30.468;2023-06-14T07:00:12;8.57;;;7.90;;
73168;SDS011;61379;59.732;30.468;2023-06-14T07:02:38;9.80;;;8.95;;
73168;SDS011;61379;59.732;30.468;2023-06-14T07:05:06;9.20;;;8.50;;
73168;SDS011;61379;59.732;30.468;2023-06-14T07:07:34;9.23;;;8.40;;
73168;SDS011;61379;59.732;30.468;2023-06-14T07:10:01;9.43;;;8.63;;
73168;SDS011;61379;59.732;30.468;2023-06-14T07:12:31;9.65;;;8.20;;
73168;SDS011;61379;59.732;30.468;2023-06-14T07:15:01;9.18;;;8.38;;
73168;SDS011;61379;59.732;30.468;2023-06-14T07:17:30;8.50;;;7.88;;
73168;SDS011;61379;59.732;30.468;2023-06-14T07:19:57;8.70;;;8.00;;
73168;SDS011;61379;59.732;30.468;2023-06-14T07:22:24;8.98;;;8.13;;
73168;SDS011;61379;59.732;30.468;2023-06-14T07:24:52;9.20;;;8.60;;
73168;SDS011;61379;59.732;30.468;2023-06-14T07:27:19;8.98;;;8.15;;
73168;SDS011;61379;59.732;30.468;2023-06-14T07:29:46;9.60;;;8.15;;
73168;SDS011;61379;59.732;30.468;2023-06-14T07:32:12;9.35;;;8.57;;
73168;SDS011;61379;59.732;30.468;2023-06-14T07:34:39;9.70;;;8.80;;
73168;SDS011;61379;59.732;30.468;2023-06-14T07:37:06;9.65;;;8.85;;
73168;SDS011;61379;59.732;30.468;2023-06-14T07:39:33;9.40;;;8.63;;
73168;SDS011;61379;59.732;30.468;2023-06-14T07:42:01;9.13;;;8.43;;
73168;SDS011;61379;59.732;30.468;2023-06-14T07:44:29;10.32;;;9.50;;
73168;SDS011;61379;59.732;30.468;2023-06-14T07:46:56;10.18;;;9.18;;
73168;SDS011;61379;59.732;30.468;2023-06-14T07:49:25;9.45;;;8.60;;
73168;SDS011;61379;59.732;30.468;2023-06-14T07:51:52;8.90;;;8.13;;
73168;SDS011;61379;59.732;30.468;2023-06-14T07:54:18;9.38;;;8.55;;
73168;SDS011;61379;59.732;30.468;2023-06-14T07:56:45;9.80;;;9.00;;
73168;SDS011;61379;59.732;30.468;2023-06-14T07:59:13;9.48;;;8.55;;
73168;SDS011;61379;59.732;30.468;2023-06-14T08:01:40;9.35;;;8.52;;
73168;SDS011;61379;59.732;30.468;2023-06-14T08:04:12;9.95;;;9.25;;
73168;SDS011;61379;59.732;30.468;2023-06-14T08:06:39;10.38;;;9.27;;
73168;SDS011;61379;59.732;30.468;2023-06-14T08:09:09;9.68;;;9.00;;
73168;SDS011;61379;59.732;30.468;2023-06-14T08:11:36;9.10;;;8.50;;
73168;SDS011;61379;59.732;30.468;2023-06-14T08:14:03;10.32;;;9.52;;
73168;SDS011;61379;59.732;30.468;2023-06-14T08:16:31;10.32;;;9.63;;
73168;SDS011;61379;59.732;30.468;2023-06-14T08:18:57;11.15;;;10.23;;
73168;SDS011;61379;59.732;30.468;2023-06-14T08:21:24;9.27;;;8.57;;
73168;SDS011;61379;59.732;30.468;2023-06-14T08:23:52;10.23;;;9.43;;
73168;SDS011;61379;59.732;30.468;2023-06-14T08:26:19;11.30;;;10.43;;
73168;SDS011;61379;59.732;30.468;2023-06-14T08:28:46;11.55;;;10.75;;
73168;SDS011;61379;59.732;30.468;2023-06-14T08:31:13;11.45;;;10.43;;
73168;SDS011;61379;59.732;30.468;2023-06-14T08:33:41;10.57;;;9.77;;
73168;SDS011;61379;59.732;30.468;2023-06-14T08:36:09;11.02;;;10.27;;
73168;SDS011;61379;59.732;30.468;2023-06-14T08:38:37;10.20;;;9.40;;
73168;SDS011;61379;59.732;30.468;2023-06-14T08:41:04;10.25;;;9.50;;
73168;SDS011;61379;59.732;30.468;2023-06-14T08:43:32;10.07;;;9.18;;
73168;SDS011;61379;59.732;30.468;2023-06-14T08:46:00;11.13;;;10.25;;
73168;SDS011;61379;59.732;30.468;2023-06-14T08:48:27;11.13;;;10.30;;
73168;SDS011;61379;59.732;30.468;2023-06-14T08:50:56;10.57;;;9.77;;
73168;SDS011;61379;59.732;30.468;2023-06-14T08:53:27;10.35;;;9.65;;
73168;SDS011;61379;59.732;30.468;2023-06-14T08:55:57;10.23;;;9.52;;
73168;SDS011;61379;59.732;30.468;2023-06-14T08:58:25;10.75;;;9.85;;
73168;SDS011;61379;59.732;30.468;2023-06-14T09:00:55;11.05;;;10.05;;
73168;SDS011;61379;59.732;30.468;2023-06-14T09:03:21;11.43;;;10.60;;
73168;SDS011;61379;59.732;30.468;2023-06-14T09:05:57;10.70;;;10.00;;
73168;SDS011;61379;59.732;30.468;2023-06-14T09:08:26;10.00;;;9.10;;
73168;SDS011;61379;59.732;30.468;2023-06-14T09:10:56;12.27;;;9.95;;
73168;SDS011;61379;59.732;30.468;2023-06-14T09:13:23;11.05;;;10.27;;
73168;SDS011;61379;59.732;30.468;2023-06-14T09:15:50;10.25;;;9.45;;
73168;SDS011;61379;59.732;30.468;2023-06-14T09:18:17;10.15;;;9.45;;
73168;SDS011;61379;59.732;30.468;2023-06-14T09:20:45;11.07;;;9.90;;
73168;SDS011;61379;59.732;30.468;2023-06-14T09:23:14;10.88;;;10.00;;
73168;SDS011;61379;59.732;30.468;2023-06-14T09:25:46;11.07;;;10.27;;
73168;SDS011;61379;59.732;30.468;2023-06-14T09:28:13;9.90;;;9.20;;
73168;SDS011;61379;59.732;30.468;2023-06-14T09:30:40;10.40;;;9.60;;
73168;SDS011;61379;59.732;30.468;2023-06-14T09:33:07;10.15;;;9.43;;
73168;SDS011;61379;59.732;30.468;2023-06-14T09:35:34;10.50;;;9.80;;
73168;SDS011;61379;59.732;30.468;2023-06-14T09:38:01;10.73;;;9.90;;
73168;SDS011;61379;59.732;30.468;2023-06-14T09:40:30;11.25;;;10.20;;
73168;SDS011;61379;59.732;30.468;2023-06-14T09:43:00;10.57;;;9.80;;
73168;SDS011;61379;59.732;30.468;2023-06-14T09:45:27;9.93;;;9.18;;
73168;SDS011;61379;59.732;30.468;2023-06-14T09:47:54;10.73;;;9.93;;
73168;SDS011;61379;59.732;30.468;2023-06-14T09:50:22;11.40;;;10.32;;
73168;SDS011;61379;59.732;30.468;2023-06-14T09:52:48;10.80;;;10.07;;
73168;SDS011;61379;59.732;30.468;2023-06-14T09:55:18;11.10;;;10.07;;
73168;SDS011;61379;59.732;30.468;2023-06-14T09:57:47;10.38;;;9.65;;
73168;SDS011;61379;59.732;30.468;2023-06-14T10:00:15;10.82;;;9.95;;
73168;SDS011;61379;59.732;30.468;2023-06-14T10:02:44;10.00;;;9.25;;
73168;SDS011;61379;59.732;30.468;2023-06-14T10:05:15;10.82;;;9.88;;
73168;SDS011;61379;59.732;30.468;2023-06-14T10:07:48;10.85;;;9.88;;
73168;SDS011;61379;59.732;30.468;2023-06-14T10:10:15;10.65;;;9.85;;
73168;SDS011;61379;59.732;30.468;2023-06-14T10:12:41;10.60;;;9.90;;
73168;SDS011;61379;59.732;30.468;2023-06-14T10:15:11;10.55;;;9.80;;
73168;SDS011;61379;59.732;30.468;2023-06-14T10:17:42;10.02;;;9.32;;
73168;SDS011;61379;59.732;30.468;2023-06-14T10:22:37;10.55;;;9.82;;
73168;SDS011;61379;59.732;30.468;2023-06-14T10:25:07;9.05;;;8.43;;
73168;SDS011;61379;59.732;30.468;2023-06-14T10:27:39;11.80;;;10.90;;
73168;SDS011;61379;59.732;30.468;2023-06-14T10:30:14;9.27;;;8.48;;
73168;SDS011;61379;59.732;30.468;2023-06-14T10:35:22;10.60;;;9.90;;
73168;SDS011;61379;59.732;30.468;2023-06-14T10:37:49;8.95;;;8.18;;
73168;SDS011;61379;59.732;30.468;2023-06-14T10:40:29;10.70;;;9.93;;
73168;SDS011;61379;59.732;30.468;2023-06-14T10:42:56;10.63;;;9.75;;
73168;SDS011;61379;59.732;30.468;2023-06-14T10:45:24;10.10;;;9.43;;
73168;SDS011;61379;59.732;30.468;2023-06-14T10:47:51;10.50;;;9.68;;
73168;SDS011;61379;59.732;30.468;2023-06-14T10:50:22;10.70;;;9.77;;
73168;SDS011;61379;59.732;30.468;2023-06-14T10:52:53;10.50;;;9.70;;
73168;SDS011;61379;59.732;30.468;2023-06-14T10:55:20;10.10;;;9.35;;
73168;SDS011;61379;59.732;30.468;2023-06-14T10:57:48;10.75;;;9.85;;
73168;SDS011;61379;59.732;30.468;2023-06-14T11:00:19;10.45;;;9.55;;
73168;SDS011;61379;59.732;30.468;2023-06-14T11:05:42;12.07;;;10.93;;
73168;SDS011;61379;59.732;30.468;2023-06-14T11:10:57;12.07;;;9.35;;
73168;SDS011;61379;59.732;30.468;2023-06-14T11:13:25;10.40;;;9.43;;
73168;SDS011;61379;59.732;30.468;2023-06-14T11:15:52;10.98;;;10.18;;
73168;SDS011;61379;59.732;30.468;2023-06-14T11:18:21;11.35;;;10.30;;
73168;SDS011;61379;59.732;30.468;2023-06-14T11:20:51;11.65;;;10.77;;
73168;SDS011;61379;59.732;30.468;2023-06-14T11:23:17;10.73;;;9.88;;
73168;SDS011;61379;59.732;30.468;2023-06-14T11:25:49;11.05;;;10.10;;
73168;SDS011;61379;59.732;30.468;2023-06-14T11:28:16;10.75;;;9.63;;
73168;SDS011;61379;59.732;30.468;2023-06-14T11:30:45;10.70;;;10.00;;
73168;SDS011;61379;59.732;30.468;2023-06-14T11:33:14;12.88;;;9.68;;
73168;SDS011;61379;59.732;30.468;2023-06-14T11:35:43;14.02;;;11.20;;
73168;SDS011;61379;59.732;30.468;2023-06-14T11:38:12;11.88;;;10.13;;
73168;SDS011;61379;59.732;30.468;2023-06-14T11:40:38;7.30;;;2.60;;
73168;SDS011;61379;59.732;30.468;2023-06-14T11:43:05;9.68;;;8.88;;
73168;SDS011;61379;59.732;30.468;2023-06-14T11:45:32;12.93;;;11.70;;
73168;SDS011;61379;59.732;30.468;2023-06-14T11:47:59;11.65;;;10.75;;
73168;SDS011;61379;59.732;30.468;2023-06-14T11:50:26;10.80;;;10.13;;
73168;SDS011;61379;59.732;30.468;2023-06-14T11:52:53;16.33;;;14.48;;
73168;SDS011;61379;59.732;30.468;2023-06-14T11:55:22;6.28;;;2.53;;
73168;SDS011;61379;59.732;30.468;2023-06-14T11:57:49;11.20;;;10.07;;
73168;SDS011;61379;59.732;30.468;2023-06-14T12:00:16;12.23;;;11.07;;
73168;SDS011;61379;59.732;30.468;2023-06-14T12:02:52;10.88;;;10.10;;
73168;SDS011;61379;59.732;30.468;2023-06-14T12:05:21;9.13;;;8.30;;
73168;SDS011;61379;59.732;30.468;2023-06-14T12:07:48;9.70;;;8.38;;
73168;SDS011;61379;59.732;30.468;2023-06-14T12:10:15;15.70;;;13.27;;
73168;SDS011;61379;59.732;30.468;2023-06-14T12:12:44;8.38;;;6.32;;
73168;SDS011;61379;59.732;30.468;2023-06-14T12:15:11;11.52;;;10.50;;
73168;SDS011;61379;59.732;30.468;2023-06-14T12:17:38;11.10;;;10.30;;
73168;SDS011;61379;59.732;30.468;2023-06-14T12:20:08;11.93;;;10.85;;
73168;SDS011;61379;59.732;30.468;2023-06-14T12:22:36;11.07;;;10.27;;
73168;SDS011;61379;59.732;30.468;2023-06-14T12:25:03;11.13;;;10.00;;
73168;SDS011;61379;59.732;30.468;2023-06-14T12:27:31;11.48;;;10.43;;
73168;SDS011;61379;59.732;30.468;2023-06-14T12:30:00;13.98;;;11.05;;
73168;SDS011;61379;59.732;30.468;2023-06-14T12:32:32;10.10;;;9.10;;
73168;SDS011;61379;59.732;30.468;2023-06-14T12:34:59;11.25;;;10.25;;
73168;SDS011;61379;59.732;30.468;2023-06-14T12:37:26;11.77;;;10.68;;
73168;SDS011;61379;59.732;30.468;2023-06-14T12:39:53;6.47;;;2.75;;
73168;SDS011;61379;59.732;30.468;2023-06-14T12:42:19;6.28;;;5.28;;
73168;SDS011;61379;59.732;30.468;2023-06-14T12:44:46;12.32;;;11.13;;
73168;SDS011;61379;59.732;30.468;2023-06-14T12:47:14;9.98;;;9.35;;
73168;SDS011;61379;59.732;30.468;2023-06-14T12:49:41;10.93;;;9.98;;
73168;SDS011;61379;59.732;30.468;2023-06-14T12:52:08;10.50;;;9.45;;
73168;SDS011;61379;59.732;30.468;2023-06-14T12:54:35;9.60;;;8.95;;
73168;SDS011;61379;59.732;30.468;2023-06-14T12:57:02;11.00;;;10.10;;
73168;SDS011;61379;59.732;30.468;2023-06-14T12:59:29;11.02;;;10.02;;
73168;SDS011;61379;59.732;30.468;2023-06-14T13:01:59;10.80;;;9.73;;
73168;SDS011;61379;59.732;30.468;2023-06-14T13:04:27;10.00;;;9.30;;
73168;SDS011;61379;59.732;30.468;2023-06-14T13:09:21;10.15;;;2.80;;
73168;SDS011;61379;59.732;30.468;2023-06-14T13:11:47;6.68;;;3.00;;
73168;SDS011;61379;59.732;30.468;2023-06-14T13:14:14;6.53;;;2.72;;
73168;SDS011;61379;59.732;30.468;2023-06-14T13:16:41;8.70;;;2.78;;
73168;SDS011;61379;59.732;30.468;2023-06-14T13:19:08;11.52;;;3.13;;
73168;SDS011;61379;59.732;30.468;2023-06-14T13:21:36;8.27;;;2.45;;
73168;SDS011;61379;59.732;30.468;2023-06-14T13:26:29;6.80;;;3.00;;
73168;SDS011;61379;59.732;30.468;2023-06-14T13:28:56;7.00;;;2.53;;
73168;SDS011;61379;59.732;30.468;2023-06-14T13:31:23;6.35;;;2.88;;
73168;SDS011;61379;59.732;30.468;2023-06-14T13:33:50;10.15;;;6.93;;
73168;SDS011;61379;59.732;30.468;2023-06-14T13:36:16;11.07;;;10.10;;
73168;SDS011;61379;59.732;30.468;2023-06-14T13:38:44;10.90;;;10.10;;
73168;SDS011;61379;59.732;30.468;2023-06-14T13:41:11;9.93;;;9.18;;
73168;SDS011;61379;59.732;30.468;2023-06-14T13:43:38;11.50;;;10.65;;
73168;SDS011;61379;59.732;30.468;2023-06-14T13:46:05;11.40;;;10.40;;
73168;SDS011;61379;59.732;30.468;2023-06-14T13:48:32;11.02;;;10.05;;
73168;SDS011;61379;59.732;30.468;2023-06-14T13:50:59;8.20;;;7.25;;
73168;SDS011;61379;59.732;30.468;2023-06-14T13:53:26;10.32;;;9.63;;
73168;SDS011;61379;59.732;30.468;2023-06-14T13:55:54;9.93;;;9.23;;
73168;SDS011;61379;59.732;30.468;2023-06-14T13:58:21;10.35;;;9.65;;
73168;SDS011;61379;59.732;30.468;2023-06-14T14:00:48;10.02;;;9.27;;
73168;SDS011;61379;59.732;30.468;2023-06-14T14:03:15;10.32;;;9.45;;
73168;SDS011;61379;59.732;30.468;2023-06-14T14:05:43;10.48;;;9.20;;
73168;SDS011;61379;59.732;30.468;2023-06-14T14:08:09;9.60;;;8.80;;
73168;SDS011;61379;59.732;30.468;2023-06-14T14:10:36;11.65;;;10.48;;
73168;SDS011;61379;59.732;30.468;2023-06-14T14:13:04;10.25;;;9.35;;
73168;SDS011;61379;59.732;30.468;2023-06-14T14:15:31;11.25;;;10.13;;
73168;SDS011;61379;59.732;30.468;2023-06-14T14:20:30;11.38;;;10.38;;
73168;SDS011;61379;59.732;30.468;2023-06-14T14:22:57;11.00;;;9.95;;
73168;SDS011;61379;59.732;30.468;2023-06-14T14:25:24;12.23;;;11.05;;
73168;SDS011;61379;59.732;30.468;2023-06-14T14:27:50;10.70;;;9.82;;
73168;SDS011;61379;59.732;30.468;2023-06-14T14:30:18;9.48;;;8.68;;
73168;SDS011;61379;59.732;30.468;2023-06-14T14:32:49;10.38;;;9.57;;
73168;SDS011;61379;59.732;30.468;2023-06-14T14:35:16;10.55;;;9.65;;
73168;SDS011;61379;59.732;30.468;2023-06-14T14:37:43;11.23;;;10.52;;
73168;SDS011;61379;59.732;30.468;2023-06-14T14:40:11;10.40;;;9.50;;
73168;SDS011;61379;59.732;30.468;2023-06-14T14:42:38;10.32;;;9.70;;
73168;SDS011;61379;59.732;30.468;2023-06-14T14:45:05;11.38;;;10.60;;